Time,TemperatureF,DewpointF,PressureIn,WindDirection,WindDirectionDegrees,WindSpeedMPH,WindSpeedGustMPH,Humidity,HourlyPrecipIn,Conditions,Clouds,dailyrainin,SoftwareType,DateUTC
2013-06-05 00:01:00,74.4,67.8,29.91,ESE,107,0.0,10.0,80,0.43,,,0.43,Weather View 32 v70,2013-06-05 05:01:00,
2013-06-05 00:16:00,74.2,67.6,29.91,SE,124,0.0,10.0,80,0.00,,,0.00,Weather View 32 v70,2013-06-05 05:16:00,
2013-06-05 00:26:00,74.1,67.9,29.92,ESE,118,0.0,10.0,81,0.00,,,0.00,Weather View 32 v70,2013-06-05 05:26:00,
2013-06-05 00:41:00,74.0,67.8,29.92,ESE,120,0.0,9.0,81,0.00,,,0.00,Weather View 32 v70,2013-06-05 05:41:00,
2013-06-05 00:51:00,73.8,67.9,29.92,ESE,120,3.0,9.0,82,0.00,,,0.00,Weather View 32 v70,2013-06-05 05:51:00,
2013-06-05 01:06:00,73.8,67.6,29.92,ESE,120,0.0,9.0,81,0.00,,,0.00,Weather View 32 v70,2013-06-05 06:06:00,
2013-06-05 01:11:00,73.8,67.6,29.92,ESE,120,3.0,8.0,81,0.00,,,0.00,Weather View 32 v70,2013-06-05 06:11:00,
2013-06-05 01:21:00,73.9,67.7,29.92,ESE,120,5.0,8.0,81,0.00,,,0.00,Weather View 32 v70,2013-06-05 06:21:00,
2013-06-05 01:36:00,74.1,67.1,29.92,SE,127,2.0,9.0,79,0.00,,,0.00,Weather View 32 v70,2013-06-05 06:36:00,
2013-06-05 01:51:00,74.1,67.1,29.92,SE,127,5.0,10.0,79,0.00,,,0.00,Weather View 32 v70,2013-06-05 06:51:00,
2013-06-05 01:56:00,74.1,67.1,29.92,SE,127,5.0,10.0,79,0.00,,,0.00,Weather View 32 v70,2013-06-05 06:56:00,
2013-06-05 02:01:00,74.0,67.4,29.92,SE,127,0.0,10.0,80,0.00,,,0.00,Weather View 32 v70,2013-06-05 07:01:00,
2013-06-05 02:11:00,73.9,67.3,29.91,SE,128,0.0,10.0,80,0.00,,,0.00,Weather View 32 v70,2013-06-05 07:11:00,
2013-06-05 02:16:00,73.8,67.2,29.91,SE,128,3.0,10.0,80,0.00,,,0.00,Weather View 32 v70,2013-06-05 07:16:00,
2013-06-05 02:31:00,73.6,67.0,29.91,SE,127,3.0,10.0,80,0.00,,,0.00,Weather View 32 v70,2013-06-05 07:31:00,
2013-06-05 02:46:00,73.3,66.7,29.89,SE,132,6.0,9.0,80,0.00,,,0.00,Weather View 32 v70,2013-06-05 07:46:00,
2013-06-05 02:51:00,73.2,66.6,29.89,SE,129,5.0,10.0,80,0.00,,,0.00,Weather View 32 v70,2013-06-05 07:51:00,
2013-06-05 03:01:00,73.0,66.8,29.88,SE,127,3.0,10.0,81,0.00,,,0.00,Weather View 32 v70,2013-06-05 08:01:00,
2013-06-05 03:11:00,72.9,66.7,29.88,SE,128,5.0,10.0,81,0.00,,,0.00,Weather View 32 v70,2013-06-05 08:11:00,
2013-06-05 03:26:00,72.8,66.6,29.88,SE,127,2.0,10.0,81,0.00,,,0.00,Weather View 32 v70,2013-06-05 08:26:00,
2013-06-05 03:36:00,72.7,66.5,29.88,SE,127,4.0,10.0,81,0.00,,,0.00,Weather View 32 v70,2013-06-05 08:36:00,
2013-06-05 03:41:00,72.7,66.5,29.88,SE,127,0.0,10.0,81,0.00,,,0.00,Weather View 32 v70,2013-06-05 08:41:00,
2013-06-05 03:56:00,72.4,66.2,29.86,SE,127,0.0,10.0,81,0.00,,,0.00,Weather View 32 v70,2013-06-05 08:56:00,
2013-06-05 04:06:00,72.2,66.0,29.86,SE,127,4.0,8.0,81,0.00,,,0.00,Weather View 32 v70,2013-06-05 09:06:00,
2013-06-05 04:26:00,72.2,66.0,29.87,SE,127,0.0,7.0,81,0.00,,,0.00,Weather View 32 v70,2013-06-05 09:26:00,
2013-06-05 04:36:00,72.2,66.0,29.87,SE,127,0.0,7.0,81,0.00,,,0.00,Weather View 32 v70,2013-06-05 09:36:00,
2013-06-05 04:46:00,72.3,66.1,29.87,SE,127,0.0,7.0,81,0.00,,,0.00,Weather View 32 v70,2013-06-05 09:46:00,
2013-06-05 04:56:00,72.4,65.9,29.88,SE,127,3.0,7.0,80,0.00,,,0.00,Weather View 32 v70,2013-06-05 09:56:00,
2013-06-05 05:11:00,72.6,66.1,29.87,SE,135,3.0,8.0,80,0.00,,,0.00,Weather View 32 v70,2013-06-05 10:11:00,
2013-06-05 05:21:00,72.5,65.6,29.89,South,175,5.0,9.0,79,0.00,,,0.00,Weather View 32 v70,2013-06-05 10:21:00,
2013-06-05 05:26:00,72.4,65.5,29.89,South,178,8.0,9.0,79,0.00,,,0.00,Weather View 32 v70,2013-06-05 10:26:00,
2013-06-05 05:31:00,72.4,65.9,29.93,West,270,12.0,20.0,80,0.00,,,0.00,Weather View 32 v70,2013-06-05 10:31:00,
2013-06-05 05:46:00,71.2,64.3,29.95,WSW,258,18.0,24.0,79,0.00,,,0.00,Weather View 32 v70,2013-06-05 10:46:00,
2013-06-05 05:56:00,68.6,64.6,29.95,WNW,297,10.0,24.0,87,0.14,,,0.14,Weather View 32 v70,2013-06-05 10:56:00,
2013-06-05 06:06:00,67.6,64.6,29.97,WSW,244,0.0,24.0,90,0.32,,,0.32,Weather View 32 v70,2013-06-05 11:06:00,
2013-06-05 06:16:00,67.0,64.6,29.97,SW,219,0.0,24.0,92,0.48,,,0.48,Weather View 32 v70,2013-06-05 11:16:00,
2013-06-05 06:31:00,67.0,64.6,29.96,WNW,286,0.0,24.0,92,0.53,,,0.53,Weather View 32 v70,2013-06-05 11:31:00,
2013-06-05 06:46:00,67.3,64.9,29.99,North,0,4.0,23.0,92,0.56,,,0.56,Weather View 32 v70,2013-06-05 11:46:00,
2013-06-05 06:58:00,66.9,64.5,29.99,SW,236,4.0,12.0,92,0.44,,,0.58,Weather View 32 v70,2013-06-05 11:58:00,
2013-06-05 07:06:00,66.7,64.6,29.98,WSW,240,3.0,11.0,93,0.31,,,0.63,Weather View 32 v70,2013-06-05 12:06:00,
2013-06-05 07:21:00,66.6,64.5,29.99,West,263,5.0,11.0,93,0.18,,,0.69,Weather View 32 v70,2013-06-05 12:21:00,
2013-06-05 07:41:00,66.9,64.5,29.97,WSW,241,0.0,11.0,92,0.22,,,0.76,Weather View 32 v70,2013-06-05 12:41:00,
2013-06-05 07:46:00,66.8,64.4,29.95,SW,233,0.0,9.0,92,0.21,,,0.77,Weather View 32 v70,2013-06-05 12:46:00,
2013-06-05 07:51:00,66.8,64.4,29.92,ESE,118,4.0,9.0,92,0.22,,,0.79,Weather View 32 v70,2013-06-05 12:51:00,
2013-06-05 07:58:00,66.9,64.5,29.90,ESE,116,4.0,9.0,92,0.22,,,0.80,Weather View 32 v70,2013-06-05 12:58:00,
2013-06-05 08:06:00,66.6,64.2,29.87,ESE,123,12.0,15.0,92,0.19,,,0.82,Weather View 32 v70,2013-06-05 13:06:00,
2013-06-05 08:16:00,66.7,64.3,29.85,SE,136,4.0,15.0,92,0.15,,,0.83,Weather View 32 v70,2013-06-05 13:16:00,
2013-06-05 08:31:00,67.3,64.6,29.90,SW,218,2.0,15.0,91,0.11,,,0.84,Weather View 32 v70,2013-06-05 13:31:00,
2013-06-05 08:41:00,67.4,64.7,29.91,SW,215,0.0,15.0,91,0.08,,,0.84,Weather View 32 v70,2013-06-05 13:41:00,
2013-06-05 08:51:00,67.4,65.0,29.91,SSW,203,0.0,15.0,92,0.06,,,0.85,Weather View 32 v70,2013-06-05 13:51:00,
2013-06-05 08:56:00,67.4,65.0,29.92,SSW,201,0.0,15.0,92,0.05,,,0.85,Weather View 32 v70,2013-06-05 13:56:00,
2013-06-05 09:11:00,67.5,65.1,29.96,WNW,289,10.0,15.0,92,0.02,,,0.85,Weather View 32 v70,2013-06-05 14:11:00,
2013-06-05 09:21:00,67.5,65.1,29.97,WNW,284,7.0,14.0,92,0.01,,,0.85,Weather View 32 v70,2013-06-05 14:21:00,
2013-06-05 09:31:00,67.6,65.2,29.97,WSW,258,3.0,14.0,92,0.01,,,0.85,Weather View 32 v70,2013-06-05 14:31:00,
2013-06-05 09:51:00,68.3,65.9,29.98,South,176,2.0,14.0,92,0.00,,,0.85,Weather View 32 v70,2013-06-05 14:51:00,
2013-06-05 09:59:00,68.1,65.4,29.98,SSE,161,3.0,14.0,91,0.00,,,0.85,Weather View 32 v70,2013-06-05 14:59:00,
2013-06-05 10:11:00,68.0,65.6,29.93,SSE,164,1.0,14.0,92,0.00,,,0.85,Weather View 32 v70,2013-06-05 15:11:00,
2013-06-05 10:16:00,67.8,65.4,29.89,ESE,112,3.0,12.0,92,0.00,,,0.85,Weather View 32 v70,2013-06-05 15:16:00,
2013-06-05 10:31:00,67.9,65.8,29.87,SE,131,6.0,12.0,93,0.00,,,0.85,Weather View 32 v70,2013-06-05 15:31:00,
2013-06-05 10:46:00,68.1,66.0,29.91,SSW,194,2.0,12.0,93,0.00,,,0.85,Weather View 32 v70,2013-06-05 15:46:00,
2013-06-05 10:51:00,68.2,65.8,29.92,SSW,197,5.0,12.0,92,0.00,,,0.85,Weather View 32 v70,2013-06-05 15:51:00,
2013-06-05 10:56:00,68.3,65.9,29.92,SSW,197,0.0,12.0,92,0.00,,,0.85,Weather View 32 v70,2013-06-05 15:56:00,
2013-06-05 11:06:00,68.6,66.2,29.93,SSW,196,0.0,12.0,92,0.00,,,0.85,Weather View 32 v70,2013-06-05 16:06:00,
2013-06-05 11:16:00,68.9,66.2,29.93,SSW,198,0.0,12.0,91,0.00,,,0.85,Weather View 32 v70,2013-06-05 16:16:00,
2013-06-05 11:26:00,70.2,66.8,29.93,SSW,199,0.0,12.0,89,0.00,,,0.85,Weather View 32 v70,2013-06-05 16:26:00,
2013-06-05 11:31:00,70.3,66.2,29.93,SSW,199,0.0,12.0,87,0.00,,,0.85,Weather View 32 v70,2013-06-05 16:31:00,
2013-06-05 11:41:00,70.3,65.9,29.93,SSW,199,0.0,8.0,86,0.00,,,0.85,Weather View 32 v70,2013-06-05 16:41:00,
2013-06-05 11:56:00,70.8,66.0,29.91,SE,143,0.0,0.0,85,0.00,,,0.85,Weather View 32 v70,2013-06-05 16:56:00,
2013-06-05 12:01:00,70.9,66.1,29.92,SSE,147,0.0,0.0,85,0.00,,,0.85,Weather View 32 v70,2013-06-05 17:01:00,
2013-06-05 12:11:00,71.4,66.3,29.92,SSE,157,0.0,0.0,84,0.00,,,0.85,Weather View 32 v70,2013-06-05 17:11:00,
2013-06-05 12:31:00,73.3,66.7,29.92,SSE,160,0.0,6.0,80,0.00,,,0.85,Weather View 32 v70,2013-06-05 17:31:00,
2013-06-05 12:36:00,73.7,66.8,29.93,West,260,6.0,8.0,79,0.00,,,0.85,Weather View 32 v70,2013-06-05 17:36:00,
2013-06-05 12:51:00,74.3,67.0,29.91,West,279,0.0,11.0,78,0.00,,,0.85,Weather View 32 v70,2013-06-05 17:51:00,
2013-06-05 13:01:00,74.8,66.7,29.91,West,274,0.0,11.0,76,0.00,,,0.85,Weather View 32 v70,2013-06-05 18:01:00,
2013-06-05 13:16:00,75.8,65.7,29.92,North,0,4.0,11.0,71,0.00,,,0.85,Weather View 32 v70,2013-06-05 18:16:00,
2013-06-05 13:36:00,76.7,65.7,29.92,WNW,283,8.0,14.0,69,0.00,,,0.85,Weather View 32 v70,2013-06-05 18:36:00,
2013-06-05 13:46:00,77.0,65.2,29.92,NNW,327,9.0,14.0,67,0.00,,,0.85,Weather View 32 v70,2013-06-05 18:46:00,
2013-06-05 13:56:00,77.5,66.5,29.92,West,269,6.0,15.0,69,0.00,,,0.85,Weather View 32 v70,2013-06-05 18:56:00,
2013-06-05 14:01:00,78.2,66.7,29.91,West,276,2.0,15.0,68,0.00,,,0.85,Weather View 32 v70,2013-06-05 19:01:00,
2013-06-05 14:11:00,78.8,66.0,29.91,NW,310,9.0,15.0,65,0.00,,,0.85,Weather View 32 v70,2013-06-05 19:11:00,
2013-06-05 14:16:00,78.8,66.4,29.91,NW,313,7.0,15.0,66,0.00,,,0.85,Weather View 32 v70,2013-06-05 19:16:00,
2013-06-05 14:26:00,78.9,66.5,29.91,WNW,294,5.0,15.0,66,0.00,,,0.85,Weather View 32 v70,2013-06-05 19:26:00,
2013-06-05 14:46:00,79.2,65.5,29.90,NW,314,6.0,17.0,63,0.00,,,0.85,Weather View 32 v70,2013-06-05 19:46:00,
2013-06-05 14:51:00,79.3,66.0,29.90,NW,326,7.0,17.0,64,0.00,,,0.85,Weather View 32 v70,2013-06-05 19:51:00,
2013-06-05 15:01:00,79.8,66.0,29.90,WNW,299,0.0,17.0,63,0.00,,,0.85,Weather View 32 v70,2013-06-05 20:01:00,
2013-06-05 15:06:00,79.8,65.6,29.90,WNW,302,9.0,19.0,62,0.00,,,0.85,Weather View 32 v70,2013-06-05 20:06:00,
2013-06-05 15:16:00,80.2,65.0,29.90,West,268,12.0,19.0,60,0.00,,,0.85,Weather View 32 v70,2013-06-05 20:16:00,
2013-06-05 15:31:00,80.1,65.4,29.90,NW,315,9.0,19.0,61,0.00,,,0.85,Weather View 32 v70,2013-06-05 20:31:00,
2013-06-05 15:36:00,80.2,65.9,29.89,NW,307,9.0,19.0,62,0.00,,,0.85,Weather View 32 v70,2013-06-05 20:36:00,
2013-06-05 15:46:00,80.6,66.3,29.89,NW,313,11.0,19.0,62,0.00,,,0.85,Weather View 32 v70,2013-06-05 20:46:00,
2013-06-05 15:56:00,81.0,67.2,29.89,NW,310,8.0,19.0,63,0.00,,,0.85,Weather View 32 v70,2013-06-05 20:56:00,
2013-06-05 16:03:00,81.3,67.0,29.89,NW,313,0.0,19.0,62,0.00,,,0.85,Weather View 32 v70,2013-06-05 21:03:00,
2013-06-05 16:11:00,82.5,67.6,29.89,WNW,296,0.0,19.0,61,0.00,,,0.85,Weather View 32 v70,2013-06-05 21:11:00,
2013-06-05 16:21:00,82.0,67.2,29.90,NNW,336,7.0,19.0,61,0.00,,,0.85,Weather View 32 v70,2013-06-05 21:21:00,
2013-06-05 16:31:00,82.0,67.6,29.89,NW,318,4.0,19.0,62,0.00,,,0.85,Weather View 32 v70,2013-06-05 21:31:00,
2013-06-05 16:41:00,82.1,67.3,29.89,NW,314,6.0,19.0,61,0.00,,,0.85,Weather View 32 v70,2013-06-05 21:41:00,
2013-06-05 16:51:00,81.9,67.1,29.89,North,4,7.0,17.0,61,0.00,,,0.85,Weather View 32 v70,2013-06-05 21:51:00,
2013-06-05 16:56:00,82.0,66.7,29.89,NNW,337,5.0,13.0,60,0.00,,,0.85,Weather View 32 v70,2013-06-05 21:56:00,
2013-06-05 17:01:00,81.9,67.1,29.89,WNW,289,1.0,13.0,61,0.00,,,0.85,Weather View 32 v70,2013-06-05 22:01:00,
2013-06-05 17:06:00,82.3,67.0,29.89,NNW,347,0.0,13.0,60,0.00,,,0.85,Weather View 32 v70,2013-06-05 22:06:00,
2013-06-05 17:21:00,81.8,66.5,29.88,NNW,336,6.0,13.0,60,0.00,,,0.85,Weather View 32 v70,2013-06-05 22:21:00,
2013-06-05 17:31:00,82.0,66.2,29.88,NW,309,0.0,12.0,59,0.00,,,0.85,Weather View 32 v70,2013-06-05 22:31:00,
2013-06-05 17:36:00,82.0,66.2,29.88,North,354,8.0,12.0,59,0.00,,,0.85,Weather View 32 v70,2013-06-05 22:36:00,
2013-06-05 17:46:00,82.3,67.0,29.87,NNW,338,6.0,12.0,60,0.00,,,0.85,Weather View 32 v70,2013-06-05 22:46:00,
2013-06-05 17:56:00,82.1,67.3,29.87,North,10,0.0,12.0,61,0.00,,,0.85,Weather View 32 v70,2013-06-05 22:56:00,
2013-06-05 18:01:00,82.0,67.2,29.87,North,359,0.0,12.0,61,0.00,,,0.85,Weather View 32 v70,2013-06-05 23:01:00,
2013-06-05 18:06:00,82.0,67.2,29.87,North,354,2.0,12.0,61,0.00,,,0.85,Weather View 32 v70,2013-06-05 23:06:00,
2013-06-05 18:11:00,82.2,67.4,29.87,WNW,294,0.0,12.0,61,0.00,,,0.85,Weather View 32 v70,2013-06-05 23:11:00,
2013-06-05 18:21:00,82.2,66.9,29.87,North,354,4.0,12.0,60,0.00,,,0.85,Weather View 32 v70,2013-06-05 23:21:00,
2013-06-05 18:31:00,82.1,66.8,29.87,NNW,347,7.0,12.0,60,0.00,,,0.85,Weather View 32 v70,2013-06-05 23:31:00,
2013-06-05 18:47:00,81.9,67.1,29.87,North,354,6.0,12.0,61,0.00,,,0.85,Weather View 32 v70,2013-06-05 23:47:00,
2013-06-05 18:56:00,81.6,66.3,29.87,NNW,337,10.0,13.0,60,0.00,,,0.85,Weather View 32 v70,2013-06-05 23:56:00,
2013-06-05 19:05:00,81.5,66.7,29.87,NNW,335,10.0,13.0,61,0.00,,,0.85,Weather View 32 v70,2013-06-06 00:05:00,
2013-06-05 19:11:00,81.4,67.1,29.87,North,354,0.0,13.0,62,0.00,,,0.85,Weather View 32 v70,2013-06-06 00:11:00,
2013-06-05 19:16:00,81.4,67.1,29.87,North,354,7.0,13.0,62,0.00,,,0.85,Weather View 32 v70,2013-06-06 00:16:00,
2013-06-05 19:26:00,81.1,67.3,29.87,North,4,9.0,13.0,63,0.00,,,0.85,Weather View 32 v70,2013-06-06 00:26:00,
2013-06-05 19:31:00,81.0,66.7,29.87,North,354,2.0,14.0,62,0.00,,,0.85,Weather View 32 v70,2013-06-06 00:31:00,
2013-06-05 19:41:00,79.9,68.3,29.88,NNE,19,6.0,14.0,68,0.00,,,0.85,Weather View 32 v70,2013-06-06 00:41:00,
2013-06-05 19:56:00,78.9,69.1,29.88,NNE,14,2.0,14.0,72,0.00,,,0.85,Weather View 32 v70,2013-06-06 00:56:00,
2013-06-05 20:05:00,78.8,68.6,29.88,NNE,33,6.0,15.0,71,0.00,,,0.85,Weather View 32 v70,2013-06-06 01:05:00,
2013-06-05 20:11:00,78.3,68.1,29.88,NNE,16,5.0,15.0,71,0.00,,,0.85,Weather View 32 v70,2013-06-06 01:11:00,
2013-06-05 20:16:00,78.1,67.9,29.88,NNE,18,0.0,15.0,71,0.00,,,0.85,Weather View 32 v70,2013-06-06 01:16:00,
2013-06-05 20:36:00,77.5,67.7,29.89,North,10,5.0,15.0,72,0.00,,,0.85,Weather View 32 v70,2013-06-06 01:36:00,
2013-06-05 20:46:00,77.2,67.4,29.89,North,11,0.0,15.0,72,0.00,,,0.85,Weather View 32 v70,2013-06-06 01:46:00,
2013-06-05 20:51:00,77.0,67.2,29.90,NNE,16,8.0,15.0,72,0.00,,,0.85,Weather View 32 v70,2013-06-06 01:51:00,
2013-06-05 21:01:00,76.7,67.0,29.90,NNE,22,0.0,13.0,72,0.00,,,0.85,Weather View 32 v70,2013-06-06 02:01:00,
2013-06-05 21:06:00,76.5,66.8,29.90,NNE,28,2.0,13.0,72,0.00,,,0.85,Weather View 32 v70,2013-06-06 02:06:00,
2013-06-05 21:16:00,76.2,66.9,29.90,North,11,0.0,11.0,73,0.00,,,0.85,Weather View 32 v70,2013-06-06 02:16:00,
2013-06-05 21:21:00,76.0,66.7,29.91,North,4,0.0,11.0,73,0.00,,,0.85,Weather View 32 v70,2013-06-06 02:21:00,
2013-06-05 21:31:00,75.8,66.5,29.92,North,4,0.0,11.0,73,0.00,,,0.85,Weather View 32 v70,2013-06-06 02:31:00,
2013-06-05 21:46:00,75.1,66.6,29.93,North,359,6.0,11.0,75,0.00,,,0.85,Weather View 32 v70,2013-06-06 02:46:00,
2013-06-05 21:51:00,74.9,66.8,29.94,North,4,0.0,11.0,76,0.00,,,0.85,Weather View 32 v70,2013-06-06 02:51:00,
2013-06-05 22:01:00,74.6,66.9,29.94,NNW,344,2.0,11.0,77,0.00,,,0.85,Weather View 32 v70,2013-06-06 03:01:00,
2013-06-05 22:06:00,74.2,66.9,29.94,NNW,344,0.0,11.0,78,0.00,,,0.85,Weather View 32 v70,2013-06-06 03:06:00,
2013-06-05 22:21:00,73.4,67.2,29.94,North,349,6.0,11.0,81,0.00,,,0.85,Weather View 32 v70,2013-06-06 03:21:00,
2013-06-05 22:26:00,73.1,67.3,29.94,North,354,0.0,14.0,82,0.00,,,0.85,Weather View 32 v70,2013-06-06 03:26:00,
2013-06-05 22:36:00,72.7,67.2,29.95,North,354,0.0,14.0,83,0.00,,,0.85,Weather View 32 v70,2013-06-06 03:36:00,
2013-06-05 22:41:00,72.5,67.0,29.95,NNW,338,0.0,14.0,83,0.00,,,0.85,Weather View 32 v70,2013-06-06 03:41:00,
2013-06-05 22:56:00,72.0,66.9,29.95,North,4,0.0,14.0,84,0.00,,,0.85,Weather View 32 v70,2013-06-06 03:56:00,
2013-06-05 23:01:00,71.8,67.0,29.94,NNE,18,6.0,14.0,85,0.00,,,0.85,Weather View 32 v70,2013-06-06 04:01:00,
2013-06-05 23:06:00,71.5,66.7,29.95,North,4,5.0,14.0,85,0.00,,,0.85,Weather View 32 v70,2013-06-06 04:06:00,
2013-06-05 23:07:00,71.5,66.7,29.95,North,4,5.0,14.0,85,0.00,,,0.85,Weather View 32 v70,2013-06-06 04:07:00,
2013-06-05 23:16:00,71.1,66.3,29.95,North,354,9.0,14.0,85,0.00,,,0.85,Weather View 32 v70,2013-06-06 04:16:00,
2013-06-05 23:21:00,70.9,66.5,29.95,North,349,1.0,14.0,86,0.00,,,0.85,Weather View 32 v70,2013-06-06 04:21:00,
2013-06-05 23:31:00,70.5,66.1,29.95,NNW,343,0.0,13.0,86,0.00,,,0.85,Weather View 32 v70,2013-06-06 04:31:00,
2013-06-05 23:36:00,70.3,65.9,29.96,NNW,337,5.0,13.0,86,0.00,,,0.85,Weather View 32 v70,2013-06-06 04:36:00,
2013-06-05 23:46:00,70.0,65.6,29.96,North,9,0.0,13.0,86,0.00,,,0.85,Weather View 32 v70,2013-06-06 04:46:00,
2013-06-05 23:51:00,69.9,65.5,29.96,North,359,0.0,13.0,86,0.00,,,0.00,Weather View 32 v70,2013-06-06 04:51:00,